Time;durP1;ratioP1;P1;durP2;ratioP2;P2;SDS_P1;SDS_P2;PMS_P1;PMS_P2;Temp;Humidity;BMP_temperature;BMP_pressure;BME280_temperature;BME280_humidity;BME280_pressure;Samples;Min_cycle;Max_cycle;Signal;HPM_P1;HPM_P2
2021/07/18 00:00:07;;;;;;;13.68;10.30;;;;;;;21.77;87.05;99590.72;5052159;28;20052;-78
2021/07/18 00:02:35;;;;;;;14.88;10.68;;;;;;;21.65;87.51;99581.31;5052378;28;20037;-77
2021/07/18 00:05:05;;;;;;;18.15;10.75;;;;;;;21.59;87.97;99585.56;5052428;28;20053;-80
2021/07/18 00:07:34;;;;;;;15.15;10.82;;;;;;;21.52;88.68;99581.91;5051146;28;20102;-78
2021/07/18 00:10:04;;;;;;;14.27;10.63;;;;;;;21.56;88.35;99583.22;5056265;28;20480;-78
2021/07/18 00:12:33;;;;;;;16.70;10.80;;;;;;;21.57;88.66;99582.19;5056526;28;20057;-81
2021/07/18 00:15:01;;;;;;;16.20;10.43;;;;;;;21.60;88.01;99573.69;5056381;28;20052;-82
2021/07/18 00:17:37;;;;;;;13.77;10.77;;;;;;;21.39;89.34;99568.06;5056239;28;20135;-82
2021/07/18 00:20:07;;;;;;;15.98;11.10;;;;;;;21.43;89.38;99578.41;5055788;28;20041;-82
2021/07/18 00:22:37;;;;;;;15.52;11.02;;;;;;;21.53;88.98;99571.91;5056370;28;20454;-83
2021/07/18 00:25:09;;;;;;;17.45;11.13;;;;;;;21.35;89.87;99577.59;5055788;28;20037;-83
2021/07/18 00:27:38;;;;;;;14.18;11.70;;;;;;;21.45;89.52;99569.22;5054953;28;20056;-83
2021/07/18 00:30:08;;;;;;;15.63;11.13;;;;;;;21.53;88.76;99574.63;5055688;28;20483;-83
2021/07/18 00:32:36;;;;;;;15.30;10.95;;;;;;;21.39;89.65;99568.91;5056178;28;20454;-83
2021/07/18 00:35:06;;;;;;;16.08;11.25;;;;;;;21.35;89.80;99572.16;5056044;28;20051;-83
2021/07/18 00:37:34;;;;;;;15.60;11.05;;;;;;;21.41;89.28;99564.16;5056220;28;20040;-80
2021/07/18 00:40:04;;;;;;;16.92;11.95;;;;;;;21.36;89.92;99565.72;5055991;28;20041;-80
2021/07/18 00:42:34;;;;;;;15.35;11.38;;;;;;;21.34;89.84;99562.34;5055731;28;20073;-81
2021/07/18 00:45:02;;;;;;;14.10;11.77;;;;;;;21.31;90.35;99555.38;5055555;28;20049;-81
2021/07/18 00:47:32;;;;;;;16.75;11.68;;;;;;;21.44;89.25;99562.97;5055731;28;20424;-81
2021/07/18 00:50:05;;;;;;;16.65;11.75;;;;;;;21.45;89.40;99558.38;5055732;28;20080;-81
2021/07/18 00:52:34;;;;;;;17.50;11.77;;;;;;;21.55;88.82;99554.41;5055831;28;20045;-81
2021/07/18 00:55:05;;;;;;;18.52;12.57;;;;;;;21.52;88.63;99560.22;5055432;28;20041;-80
2021/07/18 00:57:36;;;;;;;17.08;12.23;;;;;;;21.45;89.58;99564.66;5055445;28;20041;-81
2021/07/18 01:00:07;;;;;;;17.70;12.10;;;;;;;21.37;90.40;99567.41;5054307;28;20052;-80
2021/07/18 01:02:36;;;;;;;16.98;11.82;;;;;;;21.31;90.46;99563.53;5055632;28;20045;-84
2021/07/18 01:05:05;;;;;;;19.70;12.60;;;;;;;21.45;89.61;99561.09;5055694;28;20049;-82
2021/07/18 01:07:34;;;;;;;14.23;11.43;;;;;;;21.40;90.26;99561.63;5055293;28;20403;-84
2021/07/18 01:10:04;;;;;;;17.33;12.45;;;;;;;21.37;90.70;99556.56;5055132;28;20045;-85
2021/07/18 01:12:54;;;;;;;18.55;12.25;;;;;;;21.45;90.28;99556.50;5055059;28;20058;-84
2021/07/18 01:15:40;;;;;;;15.57;12.20;;;;;;;21.38;90.61;99552.81;5055107;28;20037;-80
2021/07/18 01:18:09;;;;;;;17.08;11.98;;;;;;;21.40;90.83;99558.91;5054285;28;20126;-82
2021/07/18 01:20:39;;;;;;;16.27;11.60;;;;;;;21.23;91.53;99544.56;5054176;28;20041;-84
2021/07/18 01:23:10;;;;;;;16.80;12.55;;;;;;;21.50;90.42;99548.66;5055045;28;20083;-82
2021/07/18 01:25:38;;;;;;;17.58;12.02;;;;;;;21.47;90.72;99553.63;5055051;28;20072;-88
2021/07/18 01:28:08;;;;;;;17.08;12.65;;;;;;;21.36;91.24;99554.88;5055314;28;20526;-88
2021/07/18 01:30:37;;;;;;;16.95;12.43;;;;;;;21.22;92.20;99553.72;5054828;28;20041;-87
2021/07/18 01:33:06;;;;;;;16.25;12.02;;;;;;;21.24;91.97;99559.81;5054951;28;20041;-88
2021/07/18 01:35:34;;;;;;;19.35;12.57;;;;;;;21.19;92.85;99558.66;5054737;28;20044;-88
2021/07/18 01:38:06;;;;;;;19.15;12.70;;;;;;;21.14;92.74;99562.75;5054731;28;20499;-88
2021/07/18 01:40:35;;;;;;;15.63;12.45;;;;;;;21.15;92.80;99569.03;5054702;28;20144;-87
2021/07/18 01:43:05;;;;;;;18.65;12.32;;;;;;;21.08;94.03;99587.84;5054561;28;20487;-87
2021/07/18 01:45:33;;;;;;;20.65;12.55;;;;;;;21.12;94.37;99619.00;5054646;28;20049;-87
2021/07/18 01:48:01;;;;;;;16.48;12.77;;;;;;;21.22;93.31;99604.38;5054639;28;20048;-87
2021/07/18 01:50:49;;;;;;;19.08;13.32;;;;;;;21.32;92.49;99577.94;5054689;28;20056;-87
2021/07/18 01:53:18;;;;;;;15.98;12.57;;;;;;;21.40;91.53;99577.88;5054159;28;20056;-87
2021/07/18 01:55:53;;;;;;;15.60;12.23;;;;;;;21.23;92.77;99596.09;5054297;28;20392;-88
2021/07/18 01:58:26;;;;;;;18.15;12.93;;;;;;;21.39;91.77;99593.31;5054223;28;20043;-88
2021/07/18 02:00:54;;;;;;;16.10;12.85;;;;;;;21.46;90.86;99577.19;5054528;28;20053;-87
2021/07/18 02:03:23;;;;;;;15.13;12.65;;;;;;;21.32;92.49;99595.03;5054108;28;20541;-88
2021/07/18 02:05:51;;;;;;;19.63;13.02;;;;;;;21.32;92.88;99586.06;5054171;28;20048;-86
2021/07/18 02:08:20;;;;;;;18.52;12.90;;;;;;;21.20;93.64;99609.16;5053782;28;20479;-85
2021/07/18 02:10:50;;;;;;;19.85;13.25;;;;;;;21.17;94.24;99587.81;5054284;28;20087;-86
2021/07/18 02:13:19;;;;;;;17.05;12.90;;;;;;;21.15;94.04;99593.44;5053883;28;20037;-87
2021/07/18 02:15:48;;;;;;;18.08;13.32;;;;;;;21.06;94.86;99589.91;5053879;28;20045;-86
2021/07/18 02:18:16;;;;;;;16.48;13.18;;;;;;;21.05;94.94;99599.06;5053781;28;20056;-87
2021/07/18 02:20:48;;;;;;;19.83;14.13;;;;;;;21.00;95.42;99608.72;5053876;28;20041;-88
2021/07/18 02:23:17;;;;;;;17.90;13.43;;;;;;;20.95;95.88;99594.88;5053556;28;20041;-88
2021/07/18 02:25:46;;;;;;;17.63;13.25;;;;;;;21.10;94.63;99585.81;5052963;28;20077;-84
2021/07/18 02:28:15;;;;;;;17.75;13.95;;;;;;;21.05;95.65;99581.94;5053970;28;20392;-83
2021/07/18 02:30:44;;;;;;;18.92;13.75;;;;;;;21.02;95.80;99585.81;5053794;28;20052;-83
2021/07/18 02:33:13;;;;;;;20.50;14.27;;;;;;;20.96;96.60;99591.13;5053351;28;20084;-79
2021/07/18 02:35:41;;;;;;;18.55;13.50;;;;;;;20.90;96.99;99589.09;5053555;28;20044;-80
2021/07/18 02:38:09;;;;;;;19.70;13.65;;;;;;;20.98;96.43;99587.22;5053741;28;20045;-86
2021/07/18 02:40:38;;;;;;;18.45;14.07;;;;;;;20.96;96.44;99580.28;5053617;28;20049;-86
2021/07/18 02:43:06;;;;;;;18.40;13.45;;;;;;;20.94;96.82;99577.75;5053534;28;20040;-86
2021/07/18 02:45:37;;;;;;;17.60;13.68;;;;;;;20.99;96.71;99574.50;5053541;28;20099;-80
2021/07/18 02:48:07;;;;;;;20.00;13.85;;;;;;;21.01;96.07;99572.44;5052158;28;20102;-80
2021/07/18 02:50:35;;;;;;;18.15;14.82;;;;;;;21.05;96.25;99571.09;5053209;28;20430;-80
2021/07/18 02:53:04;;;;;;;19.10;14.25;;;;;;;20.96;96.87;99572.16;5053199;28;20041;-78
2021/07/18 02:55:32;;;;;;;19.15;13.93;;;;;;;20.85;97.87;99578.81;5053024;28;20446;-79
2021/07/18 02:58:00;;;;;;;19.42;14.65;;;;;;;20.81;98.10;99589.13;5053214;28;20441;-78
2021/07/18 03:00:29;;;;;;;21.77;15.25;;;;;;;20.80;98.67;99597.44;5052685;28;20057;-80
2021/07/18 03:02:59;;;;;;;24.75;16.33;;;;;;;20.80;98.58;99597.44;5053204;28;20041;-82
2021/07/18 03:05:27;;;;;;;20.92;16.27;;;;;;;20.83;98.44;99597.06;5052827;28;20043;-82
2021/07/18 03:07:58;;;;;;;23.10;15.98;;;;;;;20.84;98.55;99593.34;5053393;28;20033;-80
2021/07/18 03:10:26;;;;;;;18.67;15.73;;;;;;;20.81;99.30;99596.41;5052730;28;20044;-80
2021/07/18 03:12:54;;;;;;;21.27;16.23;;;;;;;20.81;99.11;99593.69;5053082;28;20124;-80
2021/07/18 03:15:23;;;;;;;21.10;16.00;;;;;;;20.88;99.25;99589.28;5052460;28;20051;-81
2021/07/18 03:17:51;;;;;;;21.70;16.10;;;;;;;20.90;98.64;99591.81;5052814;28;20045;-81
2021/07/18 03:20:21;;;;;;;20.92;15.88;;;;;;;20.93;99.05;99603.16;5052543;28;20053;-81
2021/07/18 03:22:50;;;;;;;20.30;15.60;;;;;;;20.96;98.45;99608.25;5052923;28;20052;-80
2021/07/18 03:25:19;;;;;;;22.20;16.80;;;;;;;21.11;97.88;99614.59;5052413;28;20419;-80
2021/07/18 03:27:48;;;;;;;22.95;15.85;;;;;;;21.18;97.23;99608.50;5053231;28;20076;-81
2021/07/18 03:30:18;;;;;;;20.60;16.00;;;;;;;21.23;97.19;99609.66;5052457;28;20048;-81
2021/07/18 03:32:47;;;;;;;23.88;16.35;;;;;;;21.27;96.83;99627.28;5052950;28;20076;-81
2021/07/18 03:35:16;;;;;;;22.85;16.30;;;;;;;21.33;96.43;99615.75;5052719;28;20040;-85
2021/07/18 03:37:46;;;;;;;19.92;16.35;;;;;;;21.48;96.11;99618.53;5052707;28;20052;-89
2021/07/18 03:40:16;;;;;;;22.20;15.90;;;;;;;21.58;95.50;99621.88;5052956;28;20132;-79
2021/07/18 03:42:45;;;;;;;22.50;16.30;;;;;;;21.67;94.87;99619.97;5053713;28;20091;-86
2021/07/18 03:45:33;;;;;;;23.25;17.17;;;;;;;21.79;94.34;99623.13;5056723;28;20122;-86
2021/07/18 03:48:01;;;;;;;21.45;16.15;;;;;;;21.89;93.72;99621.00;5056708;28;20044;-86
2021/07/18 03:50:50;;;;;;;20.27;15.95;;;;;;;22.18;92.06;99617.59;5057030;28;20442;-86
2021/07/18 03:53:20;;;;;;;20.88;15.68;;;;;;;22.47;90.71;99616.84;5056244;28;20084;-84
2021/07/18 03:55:48;;;;;;;21.38;16.33;;;;;;;23.00;87.76;99623.13;5056727;28;20511;-80
2021/07/18 03:58:17;;;;;;;21.08;15.65;;;;;;;23.55;84.99;99619.88;5056639;28;20403;-79
2021/07/18 04:00:45;;;;;;;20.95;15.00;;;;;;;23.89;82.79;99621.13;5056645;28;20040;-79
2021/07/18 04:03:13;;;;;;;24.30;15.05;;;;;;;24.09;81.21;99618.59;5056546;28;20045;-79
2021/07/18 04:05:44;;;;;;;18.40;14.77;;;;;;;24.63;78.76;99623.50;5054801;28;20499;-80
2021/07/18 04:08:16;;;;;;;19.90;14.35;;;;;;;25.09;76.48;99621.09;5056394;28;20480;-80
2021/07/18 04:10:46;;;;;;;18.40;14.23;;;;;;;25.51;74.10;99627.41;5056276;28;20536;-87
2021/07/18 04:13:14;;;;;;;18.98;14.05;;;;;;;25.77;73.13;99629.41;5056189;28;20049;-85
2021/07/18 04:15:42;;;;;;;19.23;14.52;;;;;;;26.06;72.30;99629.09;5055901;28;20098;-85
2021/07/18 04:18:11;;;;;;;19.02;13.23;;;;;;;26.22;71.29;99636.03;5056255;28;20072;-85
2021/07/18 04:20:39;;;;;;;19.65;14.75;;;;;;;26.42;69.57;99644.28;5056030;28;20496;-88
2021/07/18 04:23:10;;;;;;;20.52;13.48;;;;;;;26.76;69.21;99641.34;5056022;28;20403;-87
2021/07/18 04:25:38;;;;;;;20.10;13.75;;;;;;;26.83;68.26;99646.81;5055703;28;20040;-87
2021/07/18 04:28:08;;;;;;;17.38;13.43;;;;;;;27.17;67.24;99644.88;5056236;28;20053;-88
2021/07/18 04:30:39;;;;;;;17.55;13.15;;;;;;;27.56;65.64;99650.22;5055667;28;20048;-88
2021/07/18 04:33:07;;;;;;;16.90;13.25;;;;;;;27.67;64.73;99648.72;5056057;28;20049;-86
2021/07/18 04:35:35;;;;;;;19.38;13.18;;;;;;;27.13;65.87;99649.09;5055605;28;20136;-80
2021/07/18 04:38:04;;;;;;;17.25;12.98;;;;;;;26.59;68.01;99648.28;5055946;28;20048;-79
2021/07/18 04:40:32;;;;;;;15.57;12.48;;;;;;;26.56;69.59;99661.56;5055378;28;20499;-79
2021/07/18 04:43:01;;;;;;;18.77;13.23;;;;;;;26.81;68.94;99652.47;5055874;28;20045;-79
2021/07/18 04:45:31;;;;;;;17.17;12.80;;;;;;;26.91;67.77;99662.16;5055548;28;20052;-79
2021/07/18 04:48:01;;;;;;;18.95;13.48;;;;;;;26.82;67.56;99654.16;5055602;28;20452;-79
2021/07/18 04:50:29;;;;;;;16.42;12.88;;;;;;;27.20;66.65;99664.44;5055537;28;20381;-79
2021/07/18 04:52:58;;;;;;;20.38;13.23;;;;;;;27.56;65.53;99665.81;5055464;28;20041;-79
2021/07/18 04:55:26;;;;;;;18.30;13.20;;;;;;;28.02;63.80;99653.81;5053809;28;20071;-79
2021/07/18 04:57:54;;;;;;;19.02;13.63;;;;;;;28.26;62.95;99664.00;5055768;28;20045;-79
2021/07/18 05:00:24;;;;;;;18.13;13.10;;;;;;;28.68;60.85;99658.88;5055065;28;20069;-79
2021/07/18 05:02:54;;;;;;;17.20;13.30;;;;;;;28.87;60.24;99665.25;5055346;28;20073;-79
2021/07/18 05:05:23;;;;;;;18.38;13.48;;;;;;;28.92;60.62;99663.53;5054960;28;20041;-80
2021/07/18 05:07:53;;;;;;;17.20;13.13;;;;;;;29.20;59.37;99673.19;5055354;28;20055;-80
2021/07/18 05:10:22;;;;;;;17.85;12.98;;;;;;;29.39;58.40;99672.13;5055474;28;20075;-80
2021/07/18 05:12:52;;;;;;;19.05;13.32;;;;;;;29.55;57.89;99662.47;5055119;28;20041;-81
2021/07/18 05:15:25;;;;;;;15.05;12.43;;;;;;;29.58;57.63;99664.75;5054965;28;20044;-82
2021/07/18 05:17:55;;;;;;;16.02;12.77;;;;;;;29.73;58.11;99669.84;5055141;28;20087;-81
2021/07/18 05:20:24;;;;;;;16.42;12.00;;;;;;;29.63;58.09;99670.41;5053576;28;20052;-82
2021/07/18 05:22:52;;;;;;;17.27;13.35;;;;;;;29.53;57.14;99668.19;5055010;28;20044;-80
2021/07/18 05:25:21;;;;;;;15.90;12.10;;;;;;;29.31;58.01;99664.19;5054942;28;20431;-81
2021/07/18 05:27:49;;;;;;;16.83;11.95;;;;;;;29.79;57.51;99666.16;5054930;28;20049;-81
2021/07/18 05:30:17;;;;;;;15.07;11.13;;;;;;;29.98;56.54;99665.06;5054735;28;20043;-80
2021/07/18 05:32:46;;;;;;;18.63;11.63;;;;;;;29.80;56.55;99662.34;5054629;28;20392;-81
2021/07/18 05:35:15;;;;;;;14.93;11.70;;;;;;;29.46;57.42;99661.91;5054964;28;20399;-84
2021/07/18 05:37:44;;;;;;;14.20;11.32;;;;;;;29.55;57.65;99657.81;5054623;28;20977;-79
2021/07/18 05:40:12;;;;;;;17.88;12.43;;;;;;;29.48;57.90;99659.78;5054589;28;20045;-79
2021/07/18 05:42:41;;;;;;;16.50;11.52;;;;;;;29.41;58.07;99663.63;5054360;28;20076;-79
2021/07/18 05:45:11;;;;;;;14.55;11.48;;;;;;;29.44;57.91;99669.53;5054562;28;20059;-82
2021/07/18 05:47:40;;;;;;;18.75;12.13;;;;;;;29.91;56.72;99667.06;5054347;28;20041;-82
2021/07/18 05:50:10;;;;;;;15.27;11.80;;;;;;;30.58;54.13;99659.50;5054823;28;20044;-82
2021/07/18 05:52:40;;;;;;;15.82;11.07;;;;;;;30.94;53.23;99657.66;5053956;28;20049;-81
2021/07/18 05:55:09;;;;;;;17.88;11.68;;;;;;;31.27;52.54;99659.84;5054995;28;20045;-85
2021/07/18 05:57:38;;;;;;;16.00;11.45;;;;;;;31.72;51.50;99659.13;5054197;28;20044;-80
2021/07/18 06:00:09;;;;;;;14.75;11.10;;;;;;;31.70;50.70;99656.63;5054391;28;20491;-80
2021/07/18 06:02:37;;;;;;;16.55;12.32;;;;;;;31.59;50.70;99654.75;5053952;28;20037;-79
2021/07/18 06:05:07;;;;;;;15.80;11.18;;;;;;;31.56;50.84;99669.03;5054350;28;20115;-82
2021/07/18 06:07:35;;;;;;;16.45;10.93;;;;;;;32.13;49.28;99671.84;5053513;28;20041;-81
2021/07/18 06:10:07;;;;;;;15.35;11.90;;;;;;;31.83;49.50;99667.41;5053894;28;20095;-81
2021/07/18 06:12:36;;;;;;;15.40;10.93;;;;;;;31.70;50.62;99666.81;5053870;28;20037;-82
2021/07/18 06:15:05;;;;;;;16.67;11.40;;;;;;;31.45;51.11;99676.22;5052594;28;20079;-85
2021/07/18 06:17:35;;;;;;;16.60;11.48;;;;;;;30.98;52.39;99676.25;5053441;28;20053;-82
2021/07/18 06:20:06;;;;;;;17.88;11.77;;;;;;;31.41;51.80;99685.22;5054636;28;20045;-84
2021/07/18 06:22:35;;;;;;;16.83;11.75;;;;;;;31.61;51.07;99677.38;5053427;28;20044;-76
2021/07/18 06:25:04;;;;;;;16.42;11.68;;;;;;;31.98;51.39;99685.34;5053759;28;20041;-86
2021/07/18 06:27:35;;;;;;;16.83;12.13;;;;;;;32.24;49.47;99679.25;5053313;28;20514;-80
2021/07/18 06:30:04;;;;;;;17.27;12.18;;;;;;;32.82;46.46;99680.00;5053762;28;20120;-84
2021/07/18 06:32:32;;;;;;;14.63;11.88;;;;;;;32.76;47.93;99679.06;5053485;28;20475;-80
2021/07/18 06:35:00;;;;;;;15.55;11.80;;;;;;;32.69;47.66;99675.63;5053349;28;20102;-82
2021/07/18 06:37:29;;;;;;;16.20;11.45;;;;;;;32.52;47.65;99681.13;5053570;28;20406;-83
2021/07/18 06:39:57;;;;;;;14.88;11.80;;;;;;;32.33;48.28;99682.44;5053700;28;20037;-82
2021/07/18 06:42:25;;;;;;;14.52;11.57;;;;;;;32.32;48.23;99681.59;5053485;28;20055;-79
2021/07/18 06:44:58;;;;;;;15.90;11.82;;;;;;;32.32;48.59;99684.38;5053000;28;20056;-83
2021/07/18 06:47:27;;;;;;;13.40;10.98;;;;;;;32.66;48.08;99681.66;5053230;28;20451;-72
2021/07/18 06:49:57;;;;;;;14.75;11.52;;;;;;;32.41;49.24;99685.63;5057028;28;20044;-77
2021/07/18 06:52:25;;;;;;;17.23;11.98;;;;;;;32.36;47.94;99690.25;5053394;28;20044;-81
2021/07/18 06:54:54;;;;;;;19.60;11.88;;;;;;;32.67;47.73;99688.84;5053295;28;20045;-82
2021/07/18 06:57:23;;;;;;;13.35;11.95;;;;;;;32.22;48.23;99688.81;5053240;28;20052;-85
2021/07/18 06:59:51;;;;;;;16.92;11.25;;;;;;;32.84;47.34;99692.50;5052974;28;20049;-85
2021/07/18 07:02:21;;;;;;;19.33;10.98;;;;;;;32.88;47.18;99696.41;5052195;28;20052;-84
2021/07/18 07:04:50;;;;;;;16.52;11.85;;;;;;;32.51;47.63;99703.47;5052755;28;20103;-78
2021/07/18 07:07:18;;;;;;;19.27;12.40;;;;;;;31.76;49.50;99699.81;5053064;28;20049;-81
2021/07/18 07:09:46;;;;;;;18.25;11.95;;;;;;;31.07;51.66;99712.50;5052608;28;20128;-79
2021/07/18 07:12:15;;;;;;;17.52;12.63;;;;;;;30.58;53.00;99703.53;5052863;28;20041;-83
2021/07/18 07:14:43;;;;;;;14.77;12.23;;;;;;;30.07;54.75;99696.69;5052326;28;20045;-80
2021/07/18 07:17:11;;;;;;;18.75;12.88;;;;;;;29.97;54.88;99703.78;5052860;28;20136;-77
2021/07/18 07:20:01;;;;;;;18.63;12.63;;;;;;;29.36;56.61;99705.53;5052727;28;20049;-76
2021/07/18 07:22:29;;;;;;;18.70;12.85;;;;;;;29.72;56.39;99701.13;5053065;28;20109;-78
2021/07/18 07:24:57;;;;;;;14.50;12.45;;;;;;;29.37;56.51;99715.47;5051478;28;20045;-79
2021/07/18 07:27:46;;;;;;;17.63;12.73;;;;;;;29.24;57.63;99712.84;5052950;28;20091;-76
2021/07/18 07:30:15;;;;;;;16.42;13.18;;;;;;;29.04;58.00;99719.34;5051597;28;20064;-80
2021/07/18 07:32:44;;;;;;;18.98;13.45;;;;;;;29.18;58.25;99719.25;5051086;28;20045;-80
2021/07/18 07:35:15;;;;;;;18.17;12.93;;;;;;;29.30;58.40;99714.69;5052640;28;20052;-81
2021/07/18 07:37:45;;;;;;;19.25;13.48;;;;;;;29.42;58.10;99721.09;5052642;28;20411;-73
2021/07/18 07:40:16;;;;;;;16.80;13.68;;;;;;;29.29;58.31;99726.75;5052533;28;20414;-73
2021/07/18 07:42:45;;;;;;;17.08;13.82;;;;;;;29.18;58.02;99731.06;5052031;28;20084;-73
2021/07/18 07:45:14;;;;;;;19.98;13.00;;;;;;;28.97;58.82;99745.22;5052388;28;20530;-73
2021/07/18 07:47:42;;;;;;;17.27;13.05;;;;;;;28.89;59.49;99740.84;5052746;28;20049;-77
2021/07/18 07:50:13;;;;;;;19.98;13.48;;;;;;;28.59;59.91;99750.75;5052190;28;20048;-77
2021/07/18 07:52:43;;;;;;;20.20;13.63;;;;;;;28.56;60.30;99752.00;5053017;28;20503;-77
2021/07/18 07:55:11;;;;;;;19.92;13.43;;;;;;;28.49;61.36;99771.28;5052216;28;20454;-77
2021/07/18 07:57:40;;;;;;;19.05;13.32;;;;;;;28.54;60.93;99772.50;5052825;28;20434;-76
2021/07/18 08:00:12;;;;;;;19.33;14.65;;;;;;;28.56;61.63;99773.94;5052285;28;20041;-73
2021/07/18 08:02:40;;;;;;;18.08;13.38;;;;;;;28.53;61.02;99777.16;5051231;28;20037;-72
2021/07/18 08:05:10;;;;;;;17.52;13.32;;;;;;;28.50;61.53;99778.44;5050942;28;20103;-73
2021/07/18 08:07:42;;;;;;;18.08;13.70;;;;;;;28.51;61.01;99771.88;5052668;28;20041;-72
2021/07/18 08:10:15;;;;;;;17.30;13.15;;;;;;;28.73;59.99;99772.38;5052357;28;20395;-72
2021/07/18 08:12:45;;;;;;;15.48;12.35;;;;;;;29.00;60.03;99769.47;5052609;28;20094;-74
2021/07/18 08:15:16;;;;;;;18.40;11.93;;;;;;;28.86;59.76;99760.47;5052126;28;20052;-71
2021/07/18 08:17:45;;;;;;;18.38;11.73;;;;;;;28.71;59.09;99762.69;5052210;28;20558;-75
2021/07/18 08:20:15;;;;;;;15.98;11.40;;;;;;;28.70;59.14;99761.00;5052029;28;20047;-72
2021/07/18 08:22:45;;;;;;;16.55;11.88;;;;;;;28.80;58.74;99756.69;5051633;28;20426;-72
2021/07/18 08:25:17;;;;;;;17.70;12.02;;;;;;;28.72;59.56;99747.91;5052098;28;20045;-72
2021/07/18 08:27:46;;;;;;;17.10;11.05;;;;;;;28.81;59.06;99741.06;5052035;28;20094;-73
2021/07/18 08:30:18;;;;;;;17.08;10.95;;;;;;;28.74;59.14;99740.28;5053209;28;20041;-73
2021/07/18 08:32:50;;;;;;;19.63;10.93;;;;;;;28.81;58.79;99735.59;5056167;28;20049;-73
2021/07/18 08:35:20;;;;;;;14.98;10.90;;;;;;;28.85;57.64;99736.81;5055605;28;20045;-72
2021/07/18 08:37:49;;;;;;;14.90;9.27;;;;;;;28.84;55.57;99740.63;5055983;28;20491;-73
2021/07/18 08:40:19;;;;;;;11.80;8.93;;;;;;;28.63;56.02;99730.84;5056091;28;20041;-72
2021/07/18 08:42:47;;;;;;;10.32;7.03;;;;;;;28.30;55.42;99739.31;5055986;28;20048;-72
2021/07/18 08:45:16;;;;;;;8.80;6.28;;;;;;;28.16;53.68;99727.53;5055815;28;20048;-72
2021/07/18 08:47:44;;;;;;;11.75;7.10;;;;;;;28.20;53.69;99733.44;5055997;28;20037;-71
2021/07/18 08:50:16;;;;;;;9.52;5.95;;;;;;;28.17;52.68;99725.63;5055580;28;20064;-72
2021/07/18 08:52:52;;;;;;;11.23;4.88;;;;;;;27.81;52.60;99713.38;5055537;28;20048;-73
2021/07/18 08:55:22;;;;;;;9.38;6.13;;;;;;;27.67;53.48;99711.72;5055417;28;20566;-73
2021/07/18 08:57:51;;;;;;;9.55;6.40;;;;;;;27.82;54.55;99714.22;5055875;28;20049;-73
2021/07/18 09:00:21;;;;;;;9.30;6.20;;;;;;;27.92;54.92;99707.22;5055318;28;20048;-73
2021/07/18 09:02:49;;;;;;;7.22;5.55;;;;;;;27.78;53.72;99712.97;5055418;28;20497;-72
2021/07/18 09:05:18;;;;;;;9.20;5.68;;;;;;;28.11;53.46;99716.41;5054076;28;20457;-73
2021/07/18 09:07:48;;;;;;;7.55;5.72;;;;;;;28.50;53.18;99709.84;5055589;28;20460;-73
2021/07/18 09:10:23;;;;;;;9.85;5.65;;;;;;;28.55;52.16;99713.81;5055245;28;20052;-73
2021/07/18 09:13:06;;;;;;;10.10;5.65;;;;;;;28.43;52.52;99711.81;5055404;28;20060;-73
2021/07/18 09:15:42;;;;;;;8.35;5.25;;;;;;;28.80;52.40;99715.53;5055195;28;20483;-74
2021/07/18 09:18:12;;;;;;;7.75;5.55;;;;;;;29.04;50.25;99713.03;5053571;28;20061;-73
2021/07/18 09:20:42;;;;;;;9.27;5.28;;;;;;;28.74;50.28;99713.69;5055161;28;20041;-73
2021/07/18 09:23:13;;;;;;;8.10;5.47;;;;;;;28.51;51.79;99714.28;5055056;28;20041;-73
2021/07/18 09:25:44;;;;;;;7.25;5.60;;;;;;;28.42;51.68;99718.34;5055272;28;20049;-73
2021/07/18 09:28:16;;;;;;;9.43;5.25;;;;;;;28.63;51.97;99721.78;5054834;28;20126;-73
2021/07/18 09:30:45;;;;;;;;;;;;;;;28.86;51.57;99723.94;5055622;28;20119;-73
2021/07/18 09:33:22;;;;;;;8.20;5.43;;;;;;;28.82;52.23;99731.78;5054798;28;19924;-74
2021/07/18 09:35:51;;;;;;;7.85;4.80;;;;;;;29.00;50.52;99736.53;5055178;28;20139;-74
2021/07/18 09:38:23;;;;;;;9.35;5.63;;;;;;;29.08;50.77;99739.81;5054667;28;20053;-74
2021/07/18 09:41:00;;;;;;;7.80;5.30;;;;;;;29.16;50.57;99737.88;5054234;28;20443;-73
2021/07/18 09:43:30;;;;;;;8.05;5.43;;;;;;;28.95;50.95;99747.31;5055203;28;20037;-73
2021/07/18 09:46:00;;;;;;;9.80;5.53;;;;;;;28.77;51.26;99753.56;5054696;28;20399;-72
2021/07/18 09:48:39;;;;;;;8.27;5.50;;;;;;;28.62;51.69;99758.53;5054601;28;20449;-73
2021/07/18 09:51:09;;;;;;;10.15;5.88;;;;;;;28.63;51.26;99772.03;5054654;28;20078;-73
2021/07/18 09:53:41;;;;;;;9.77;5.60;;;;;;;28.57;52.67;99775.66;5054480;28;20079;-73
2021/07/18 09:56:17;;;;;;;8.07;5.93;;;;;;;28.59;52.67;99775.44;5054483;28;20045;-73
2021/07/18 09:58:53;;;;;;;10.32;5.90;;;;;;;28.45;53.20;99767.28;5054738;28;20057;-73
2021/07/18 10:01:22;;;;;;;9.52;5.72;;;;;;;28.43;52.05;99758.44;5054254;28;20041;-73
2021/07/18 10:03:54;;;;;;;8.32;5.60;;;;;;;28.32;53.31;99753.66;5054479;28;20043;-73
2021/07/18 10:06:25;;;;;;;8.13;5.60;;;;;;;28.38;53.02;99746.44;5054166;28;20043;-73
2021/07/18 10:08:56;;;;;;;8.27;5.50;;;;;;;28.54;52.21;99728.59;5054241;28;20547;-72
2021/07/18 10:11:30;;;;;;;8.55;5.40;;;;;;;28.49;51.70;99735.63;5054321;28;20045;-73
2021/07/18 10:14:00;;;;;;;9.43;5.40;;;;;;;28.70;52.68;99733.56;5054292;28;20087;-73
2021/07/18 10:16:32;;;;;;;10.60;6.22;;;;;;;28.84;51.57;99737.88;5053799;28;20518;-73
2021/07/18 10:19:01;;;;;;;7.75;6.00;;;;;;;28.88;51.85;99735.53;5054489;28;20554;-73
2021/07/18 10:21:30;;;;;;;8.02;5.63;;;;;;;28.84;52.36;99737.88;5053721;28;20040;-73
2021/07/18 10:23:59;;;;;;;8.75;6.38;;;;;;;28.87;52.27;99731.97;5054305;28;20044;-73
2021/07/18 10:26:32;;;;;;;8.75;5.80;;;;;;;28.93;51.40;99725.59;5053612;28;20040;-73
2021/07/18 10:29:00;;;;;;;9.50;5.88;;;;;;;28.75;51.34;99722.75;5053747;28;20037;-73
2021/07/18 10:31:32;;;;;;;8.45;5.60;;;;;;;28.74;51.60;99724.66;5053536;28;20450;-73
2021/07/18 10:34:05;;;;;;;9.73;5.60;;;;;;;28.85;51.20;99720.34;5054016;28;20120;-73
2021/07/18 10:36:34;;;;;;;9.38;5.40;;;;;;;28.89;50.44;99721.63;5052707;28;20053;-73
2021/07/18 10:39:24;;;;;;;8.50;5.20;;;;;;;28.64;48.90;99723.47;5053593;28;20041;-73
2021/07/18 10:41:53;;;;;;;10.93;5.43;;;;;;;28.78;49.66;99720.41;5053650;28;20400;-72
2021/07/18 10:44:22;;;;;;;9.65;5.43;;;;;;;28.76;50.50;99727.19;5053352;28;20049;-71
2021/07/18 10:46:57;;;;;;;9.18;5.38;;;;;;;28.76;50.91;99729.94;5053438;28;20041;-73
2021/07/18 10:49:49;;;;;;;8.57;5.78;;;;;;;28.79;52.42;99722.09;5053074;28;20069;-74
2021/07/18 10:52:17;;;;;;;7.75;5.72;;;;;;;28.79;52.90;99724.84;5053143;28;20472;-74
2021/07/18 10:54:46;;;;;;;9.30;6.03;;;;;;;28.65;54.90;99716.91;5053442;28;20087;-74
2021/07/18 10:57:27;;;;;;;8.82;5.85;;;;;;;28.75;55.78;99714.50;5053185;28;20041;-73
2021/07/18 10:59:57;;;;;;;8.88;5.55;;;;;;;28.54;55.50;99713.00;5053453;28;20491;-75
2021/07/18 11:02:33;;;;;;;8.23;5.45;;;;;;;28.59;54.48;99715.09;5052975;28;20065;-74
2021/07/18 11:05:05;;;;;;;9.43;5.55;;;;;;;28.62;55.61;99711.88;5053408;28;20086;-81
2021/07/18 11:07:35;;;;;;;10.40;5.20;;;;;;;28.46;55.99;99705.84;5052933;28;20102;-78
2021/07/18 11:10:17;;;;;;;10.52;5.25;;;;;;;28.41;56.84;99697.47;5053429;28;20052;-74
2021/07/18 11:12:59;;;;;;;7.43;5.22;;;;;;;28.41;59.35;99697.47;5053173;28;20037;-77
2021/07/18 11:15:33;;;;;;;8.60;5.18;;;;;;;28.33;59.80;99684.03;5052575;28;20442;-75
2021/07/18 11:18:07;;;;;;;7.85;5.30;;;;;;;28.35;58.14;99676.41;5052848;28;20102;-74
2021/07/18 11:20:41;;;;;;;8.15;5.03;;;;;;;28.29;57.23;99669.09;5052699;28;20053;-75
2021/07/18 11:23:11;;;;;;;10.55;5.30;;;;;;;28.18;58.43;99661.50;5052773;28;20056;-79
2021/07/18 11:25:45;;;;;;;7.32;5.15;;;;;;;28.31;56.00;99663.38;5052891;28;20075;-74
2021/07/18 11:28:56;;;;;;;9.32;4.85;;;;;;;28.34;56.83;99658.28;5052613;28;20483;-75
2021/07/18 11:31:44;;;;;;;9.77;5.65;;;;;;;28.48;58.37;99648.91;5052327;28;20044;-71
2021/07/18 11:34:20;;;;;;;7.78;5.93;;;;;;;28.50;57.46;99638.53;5053070;28;20476;-73
2021/07/18 11:36:55;;;;;;;9.57;6.32;;;;;;;28.29;58.01;99621.63;5052436;28;20049;-73